Time;durP1;ratioP1;P1;durP2;ratioP2;P2;SDS_P1;SDS_P2;PMS_P1;PMS_P2;Temp;Humidity;BMP_temperature;BMP_pressure;BME280_temperature;BME280_humidity;BME280_pressure;Samples;Min_cycle;Max_cycle;Signal;HPM_P1;HPM_P2
2022/04/11 00:00:47;;;;;;;10.77;5.93;;;3.10;99.90;;;;;;4140880;28;20325;-58
2022/04/11 00:02:48;;;;;;;9.60;5.37;;;3.10;99.90;;;;;;4139689;28;20295;-57
2022/04/11 00:04:49;;;;;;;8.83;5.07;;;3.10;99.90;;;;;;4141321;28;21208;-58
2022/04/11 00:06:50;;;;;;;8.50;6.07;;;3.10;99.90;;;;;;4139706;28;20784;-57
2022/04/11 00:08:51;;;;;;;8.13;5.07;;;3.00;99.90;;;;;;4140849;28;20762;-57
2022/04/11 00:10:52;;;;;;;14.50;6.47;;;3.00;99.90;;;;;;4139899;28;20271;-57
2022/04/11 00:13:04;;;;;;;8.37;4.67;;;2.90;99.90;;;;;;4141175;28;20333;-57
2022/04/11 00:15:06;;;;;;;7.70;4.97;;;2.90;99.90;;;;;;4139755;28;20271;-58
2022/04/11 00:17:07;;;;;;;7.73;4.93;;;2.90;99.90;;;;;;4141093;28;20337;-56
2022/04/11 00:19:09;;;;;;;7.50;4.70;;;2.90;99.90;;;;;;4139779;28;20609;-57
2022/04/11 00:21:11;;;;;;;6.97;4.57;;;2.80;99.90;;;;;;4140621;28;20263;-58
2022/04/11 00:23:12;;;;;;;7.73;4.50;;;2.80;99.90;;;;;;4139776;28;20387;-56
2022/04/11 00:25:13;;;;;;;8.80;6.10;;;2.80;99.90;;;;;;4140428;28;20271;-57
2022/04/11 00:27:14;;;;;;;10.97;6.17;;;2.80;99.90;;;;;;4140753;28;20793;-57
2022/04/11 00:29:15;;;;;;;10.47;7.27;;;2.70;99.90;;;;;;4142934;28;20329;-57
2022/04/11 00:31:17;;;;;;;11.80;6.07;;;2.70;99.90;;;;;;4143127;28;20283;-55
2022/04/11 00:33:18;;;;;;;9.13;5.43;;;2.70;99.90;;;;;;4144943;28;20267;-58
2022/04/11 00:35:19;;;;;;;7.37;5.23;;;2.60;99.90;;;;;;4145488;28;20264;-58
2022/04/11 00:37:20;;;;;;;8.43;5.83;;;2.60;99.90;;;;;;4142875;28;20283;-56
2022/04/11 00:39:21;;;;;;;8.10;4.67;;;2.60;99.90;;;;;;4143808;28;20333;-57
2022/04/11 00:41:23;;;;;;;6.87;4.73;;;2.60;99.90;;;;;;4143074;28;20268;-58
2022/04/11 00:43:33;;;;;;;6.13;4.60;;;2.60;99.90;;;;;;4143474;28;20327;-54
2022/04/11 00:45:35;;;;;;;5.88;4.47;;;2.60;99.90;;;;;;4142758;28;20272;-56
2022/04/11 00:47:36;;;;;;;8.70;4.30;;;2.60;99.90;;;;;;4143550;28;20434;-57
2022/04/11 00:49:37;;;;;;;7.13;4.43;;;2.60;99.90;;;;;;4142871;28;20410;-53
2022/04/11 00:51:40;;;;;;;7.07;3.83;;;2.50;99.90;;;;;;4143442;28;20775;-57
2022/04/11 00:53:44;;;;;;;6.13;4.13;;;2.60;99.90;;;;;;4142314;28;20330;-55
2022/04/11 00:55:45;;;;;;;9.03;4.97;;;2.60;99.90;;;;;;4143090;28;21036;-56
2022/04/11 00:57:47;;;;;;;6.37;4.17;;;2.60;99.90;;;;;;4142744;28;20287;-55
2022/04/11 00:59:49;;;;;;;5.87;3.63;;;2.50;99.90;;;;;;4142474;28;20327;-56
2022/04/11 01:01:50;;;;;;;7.60;3.73;;;2.60;99.90;;;;;;4142545;28;20294;-59
2022/04/11 01:03:52;;;;;;;4.87;3.70;;;2.60;99.90;;;;;;4142765;28;20288;-57
2022/04/11 01:05:53;;;;;;;6.57;3.63;;;2.60;99.90;;;;;;4142684;28;20303;-53
2022/04/11 01:08:01;;;;;;;4.70;3.90;;;2.60;99.90;;;;;;4142317;28;20302;-55
2022/04/11 01:10:04;;;;;;;6.33;3.10;;;2.60;99.90;;;;;;4143240;28;20276;-54
2022/04/11 01:12:05;;;;;;;7.93;3.57;;;2.70;99.90;;;;;;4142206;28;20740;-55
2022/04/11 01:14:06;;;;;;;5.37;3.07;;;2.60;99.90;;;;;;4142098;28;20787;-56
2022/04/11 01:16:07;;;;;;;6.33;3.97;;;2.60;99.90;;;;;;4141972;28;20267;-56
2022/04/11 01:18:08;;;;;;;6.73;3.97;;;2.60;99.90;;;;;;4143399;28;20284;-56
2022/04/11 01:20:16;;;;;;;7.70;3.97;;;2.70;99.90;;;;;;4142230;28;20629;-58
2022/04/11 01:22:17;;;;;;;7.23;3.50;;;2.70;99.90;;;;;;4143508;28;20267;-57
2022/04/11 01:24:21;;;;;;;5.10;3.47;;;2.60;99.90;;;;;;4142519;28;20287;-57
2022/04/11 01:26:25;;;;;;;8.90;3.03;;;2.60;99.90;;;;;;4143246;28;20751;-56
2022/04/11 01:28:27;;;;;;;5.87;3.67;;;2.60;99.90;;;;;;4141485;28;20334;-56
2022/04/11 01:30:28;;;;;;;7.30;3.40;;;2.60;99.90;;;;;;4143039;28;21081;-59
2022/04/11 01:32:29;;;;;;;4.80;2.93;;;2.60;99.90;;;;;;4141435;28;20330;-58
2022/04/11 01:34:30;;;;;;;4.50;3.10;;;2.60;99.90;;;;;;4142795;28;20321;-55
2022/04/11 01:36:31;;;;;;;7.37;3.20;;;2.60;99.90;;;;;;4142026;28;20283;-58
2022/04/11 01:38:33;;;;;;;4.83;2.90;;;2.60;99.90;;;;;;4142302;28;20264;-53
2022/04/11 01:40:34;;;;;;;4.37;2.90;;;2.60;99.90;;;;;;4142255;28;20267;-59
2022/04/11 01:42:35;;;;;;;5.57;3.20;;;2.60;99.90;;;;;;4141927;28;20766;-54
2022/04/11 01:44:36;;;;;;;4.63;3.10;;;2.60;99.90;;;;;;4142924;28;20263;-58
2022/04/11 01:46:37;;;;;;;7.33;3.10;;;2.60;99.90;;;;;;4141362;28;20286;-58
2022/04/11 01:48:39;;;;;;;5.63;3.37;;;2.60;99.90;;;;;;4142550;28;20735;-56
2022/04/11 01:50:40;;;;;;;6.87;3.17;;;2.70;99.90;;;;;;4141902;28;20370;-55
2022/04/11 01:52:41;;;;;;;6.40;3.50;;;2.70;99.90;;;;;;4143195;28;20288;-58
2022/04/11 01:54:42;;;;;;;4.60;2.60;;;2.60;99.90;;;;;;4141140;28;20329;-56
2022/04/11 01:56:44;;;;;;;6.60;3.23;;;2.60;99.90;;;;;;4142757;28;20267;-57
2022/04/11 01:58:45;;;;;;;4.23;3.27;;;2.60;99.90;;;;;;4141979;28;20268;-58
2022/04/11 02:00:46;;;;;;;4.13;3.10;;;2.60;99.90;;;;;;4142829;28;20324;-58
2022/04/11 02:02:47;;;;;;;7.50;2.67;;;2.60;99.90;;;;;;4141807;28;20291;-55
2022/04/11 02:04:48;;;;;;;5.43;3.20;;;2.60;99.90;;;;;;4141620;28;20326;-55
2022/04/11 02:06:49;;;;;;;5.17;2.97;;;2.70;99.90;;;;;;4140670;28;20628;-58
2022/04/11 02:08:52;;;;;;;5.90;2.87;;;2.70;99.90;;;;;;4141621;28;20624;-57
2022/04/11 02:10:53;;;;;;;4.07;2.90;;;2.60;99.90;;;;;;4142100;28;20283;-58
2022/04/11 02:12:55;;;;;;;4.83;3.10;;;2.60;99.90;;;;;;4141186;28;20275;-57
2022/04/11 02:14:56;;;;;;;6.20;3.50;;;2.60;99.90;;;;;;4142301;28;20321;-56
2022/04/11 02:16:58;;;;;;;9.20;4.00;;;2.60;99.90;;;;;;4139452;28;20287;-57
2022/04/11 02:18:59;;;;;;;5.30;3.50;;;2.50;99.90;;;;;;4142402;28;20307;-58
2022/04/11 02:21:00;;;;;;;7.73;3.73;;;2.50;99.90;;;;;;4141372;28;20275;-58
2022/04/11 02:23:01;;;;;;;6.50;3.17;;;2.40;99.90;;;;;;4142062;28;20771;-56
2022/04/11 02:25:02;;;;;;;5.50;3.07;;;2.40;99.90;;;;;;4140890;28;20759;-59
2022/04/11 02:27:04;;;;;;;7.63;3.37;;;2.40;99.90;;;;;;4142215;28;20279;-57
2022/04/11 02:29:05;;;;;;;5.73;3.40;;;2.40;99.90;;;;;;4140219;28;20284;-59
2022/04/11 02:31:06;;;;;;;5.27;3.27;;;2.40;99.90;;;;;;4141827;28;20295;-62
2022/04/11 02:33:08;;;;;;;9.67;3.10;;;2.30;99.90;;;;;;4140985;28;20724;-59
2022/04/11 02:35:09;;;;;;;6.23;3.03;;;2.30;99.90;;;;;;4140157;28;20310;-57
2022/04/11 02:37:10;;;;;;;5.83;2.53;;;2.30;99.90;;;;;;4141009;28;20318;-58
2022/04/11 02:39:11;;;;;;;7.07;3.20;;;2.20;99.90;;;;;;4141187;28;21246;-62
2022/04/11 02:41:13;;;;;;;6.13;2.80;;;2.20;99.90;;;;;;4141409;28;20318;-57
2022/04/11 02:43:15;;;;;;;4.07;2.63;;;2.20;99.90;;;;;;4140817;28;20345;-58
2022/04/11 02:45:17;;;;;;;5.90;2.80;;;2.20;99.90;;;;;;4141567;28;20284;-55
2022/04/11 02:47:19;;;;;;;6.07;2.80;;;2.20;99.90;;;;;;4139273;28;20286;-56
2022/04/11 02:49:20;;;;;;;4.03;2.53;;;2.20;99.90;;;;;;4141493;28;20322;-56
2022/04/11 02:51:21;;;;;;;7.70;2.83;;;2.20;99.90;;;;;;4140056;28;20333;-57
2022/04/11 02:53:22;;;;;;;9.87;4.00;;;2.20;99.90;;;;;;4141919;28;20325;-55
2022/04/11 02:55:23;;;;;;;18.13;9.40;;;2.20;99.90;;;;;;4140201;28;20260;-58
2022/04/11 02:57:25;;;;;;;29.17;12.83;;;2.10;99.90;;;;;;4141932;28;20283;-59
2022/04/11 02:59:26;;;;;;;44.20;15.67;;;2.10;99.90;;;;;;4140544;28;20279;-55
2022/04/11 03:01:27;;;;;;;34.13;14.10;;;2.10;99.90;;;;;;4141440;28;20284;-56
2022/04/11 03:03:28;;;;;;;21.97;9.93;;;2.10;99.90;;;;;;4140370;28;20287;-57
2022/04/11 03:05:30;;;;;;;22.57;10.90;;;2.10;99.90;;;;;;4139060;28;20283;-56
2022/04/11 03:07:32;;;;;;;22.87;9.73;;;2.10;99.90;;;;;;4124734;28;20539;-58
2022/04/11 03:09:33;;;;;;;18.70;9.13;;;2.00;99.90;;;;;;4124821;28;20271;-58
2022/04/11 03:11:35;;;;;;;12.47;7.90;;;2.00;99.90;;;;;;4137306;28;20656;-57
2022/04/11 03:13:36;;;;;;;13.70;8.03;;;2.00;99.90;;;;;;4140390;28;20275;-57
2022/04/11 03:15:37;;;;;;;9.90;5.57;;;2.00;99.90;;;;;;4141430;28;20287;-57
2022/04/11 03:17:38;;;;;;;6.97;4.80;;;2.00;99.90;;;;;;4140052;28;20337;-60
2022/04/11 03:19:39;;;;;;;8.30;5.80;;;2.00;99.90;;;;;;4141504;28;20333;-57
2022/04/11 03:21:40;;;;;;;8.30;5.17;;;1.90;99.90;;;;;;4140760;28;20345;-55
2022/04/11 03:23:41;;;;;;;8.13;4.27;;;1.90;99.90;;;;;;4140947;28;20345;-58
2022/04/11 03:25:43;;;;;;;6.17;4.20;;;2.00;99.90;;;;;;4139945;28;20275;-58
2022/04/11 03:27:44;;;;;;;13.33;5.50;;;1.90;99.90;;;;;;4141028;28;20509;-58
2022/04/11 03:29:45;;;;;;;8.43;5.33;;;1.90;99.90;;;;;;4140107;28;20322;-55
2022/04/11 03:31:46;;;;;;;7.73;3.37;;;1.90;99.90;;;;;;4140872;28;20280;-57
2022/04/11 03:33:47;;;;;;;5.90;3.50;;;1.90;99.90;;;;;;4140319;28;20267;-56
2022/04/11 03:35:48;;;;;;;6.33;3.73;;;1.90;99.90;;;;;;4140834;28;20309;-56
2022/04/11 03:37:49;;;;;;;7.93;4.37;;;1.90;99.90;;;;;;4140296;28;20287;-52
2022/04/11 03:39:50;;;;;;;6.13;3.53;;;1.80;99.90;;;;;;4140602;28;20678;-61
2022/04/11 03:41:52;;;;;;;9.63;4.30;;;1.80;99.90;;;;;;4139763;28;20331;-58
2022/04/11 03:43:53;;;;;;;6.93;4.20;;;1.80;99.90;;;;;;4139012;28;20333;-55
2022/04/11 03:45:54;;;;;;;7.13;3.77;;;1.80;99.90;;;;;;4140726;28;20345;-58
2022/04/11 03:47:55;;;;;;;6.63;3.63;;;1.80;99.90;;;;;;4139657;28;20775;-57
2022/04/11 03:49:56;;;;;;;9.60;4.00;;;1.80;99.90;;;;;;4139904;28;20310;-60
2022/04/11 03:51:57;;;;;;;8.90;5.77;;;1.80;99.90;;;;;;4139555;28;20255;-55
2022/04/11 03:53:59;;;;;;;8.20;4.73;;;1.80;99.90;;;;;;4140318;28;20312;-60
2022/04/11 03:56:00;;;;;;;6.07;4.50;;;1.70;99.90;;;;;;4139659;28;20275;-56
2022/04/11 03:58:01;;;;;;;10.17;5.10;;;1.70;99.90;;;;;;4141022;28;20271;-58
2022/04/11 04:00:04;;;;;;;7.17;4.73;;;1.70;99.90;;;;;;4139589;28;20655;-58
2022/04/11 04:02:05;;;;;;;13.30;6.67;;;1.70;99.90;;;;;;4124754;28;20379;-60
2022/04/11 04:04:06;;;;;;;9.10;4.17;;;1.70;99.90;;;;;;4141073;28;20342;-58
2022/04/11 04:06:08;;;;;;;9.00;4.57;;;1.70;99.90;;;;;;4143515;28;20287;-58
2022/04/11 04:08:10;;;;;;;7.07;5.03;;;1.70;99.90;;;;;;4143365;28;20378;-68
2022/04/11 04:10:11;;;;;;;6.07;4.63;;;1.70;99.90;;;;;;4143274;28;20924;-56
2022/04/11 04:12:12;;;;;;;9.47;5.10;;;1.70;99.90;;;;;;4143787;28;20313;-60
2022/04/11 04:14:13;;;;;;;11.87;6.83;;;1.70;99.90;;;;;;4142246;28;20279;-58
2022/04/11 04:16:14;;;;;;;9.13;5.77;;;1.80;99.90;;;;;;4143263;28;20283;-58
2022/04/11 04:18:16;;;;;;;8.20;6.07;;;1.80;99.90;;;;;;4142305;28;20275;-56
2022/04/11 04:20:17;;;;;;;11.77;6.70;;;1.90;99.90;;;;;;4142600;28;20922;-54
2022/04/11 04:22:18;;;;;;;12.00;6.90;;;1.90;99.90;;;;;;4142166;28;20334;-58
2022/04/11 04:24:22;;;;;;;9.93;6.23;;;1.90;99.90;;;;;;4143776;28;20295;-54
2022/04/11 04:26:23;;;;;;;12.20;6.20;;;2.00;99.90;;;;;;4141840;28;20686;-60
2022/04/11 04:28:24;;;;;;;12.10;6.60;;;2.00;99.90;;;;;;4143886;28;21038;-56
2022/04/11 04:30:26;;;;;;;11.87;5.50;;;2.10;99.90;;;;;;4141874;28;20307;-58
2022/04/11 04:32:27;;;;;;;11.03;6.10;;;2.30;99.90;;;;;;4143114;28;20844;-58
2022/04/11 04:34:31;;;;;;;11.80;7.90;;;2.70;99.90;;;;;;4142248;28;20268;-58
2022/04/11 04:36:33;;;;;;;13.27;6.57;;;3.10;99.90;;;;;;4141638;28;20271;-56
2022/04/11 04:38:34;;;;;;;13.17;5.73;;;3.60;99.90;;;;;;4142696;28;20264;-51
2022/04/11 04:40:35;;;;;;;9.90;5.40;;;4.10;99.90;;;;;;4142835;28;20263;-58
2022/04/11 04:42:36;;;;;;;7.53;4.50;;;4.50;99.90;;;;;;4142772;28;20322;-55
2022/04/11 04:44:41;;;;;;;12.73;5.20;;;5.00;99.90;;;;;;4137620;28;20302;-56
2022/04/11 04:46:42;;;;;;;11.27;5.13;;;5.30;99.90;;;;;;4141851;28;20886;-58
2022/04/11 04:48:43;;;;;;;7.93;4.10;;;5.60;99.90;;;;;;4141920;28;20771;-57
2022/04/11 04:50:44;;;;;;;7.93;4.37;;;5.90;99.90;;;;;;4143602;28;20279;-57
2022/04/11 04:52:45;;;;;;;8.07;4.50;;;6.20;99.90;;;;;;4141208;28;20337;-60
2022/04/11 04:54:46;;;;;;;8.43;4.00;;;6.50;99.90;;;;;;4143649;28;20994;-57
2022/04/11 04:56:49;;;;;;;8.30;5.10;;;6.60;99.90;;;;;;4142426;28;20358;-56
2022/04/11 04:58:51;;;;;;;6.63;5.07;;;6.90;99.90;;;;;;4142556;28;20057;-60
2022/04/11 05:00:52;;;;;;;11.97;5.40;;;7.20;99.90;;;;;;4142105;28;20037;-58
2022/04/11 05:02:53;;;;;;;10.43;5.17;;;7.40;99.90;;;;;;4142585;28;20054;-52
2022/04/11 05:04:55;;;;;;;8.33;4.63;;;7.70;99.90;;;;;;4142548;28;20080;-58
2022/04/11 05:06:56;;;;;;;9.83;4.73;;;7.70;99.90;;;;;;4142576;28;20045;-56
2022/04/11 05:08:57;;;;;;;8.80;4.57;;;7.90;99.90;;;;;;4141690;28;20034;-58
2022/04/11 05:10:58;;;;;;;8.90;3.80;;;8.00;99.90;;;;;;4142202;28;20026;-56
2022/04/11 05:12:59;;;;;;;6.97;4.23;;;8.20;99.90;;;;;;4142330;28;20088;-59
2022/04/11 05:15:03;;;;;;;5.17;4.07;;;8.30;99.90;;;;;;4138903;28;20509;-58
2022/04/11 05:17:04;;;;;;;5.67;3.97;;;8.50;99.90;;;;;;4142560;28;20500;-57
2022/04/11 05:19:05;;;;;;;8.87;3.70;;;8.90;99.90;;;;;;4141624;28;20038;-59
2022/04/11 05:21:06;;;;;;;5.53;3.73;;;9.00;99.90;;;;;;4142884;28;20038;-59
2022/04/11 05:23:08;;;;;;;11.83;4.07;;;9.20;99.90;;;;;;4141557;28;20076;-61
2022/04/11 05:25:09;;;;;;;5.83;3.50;;;9.30;99.90;;;;;;4143060;28;20116;-58
2022/04/11 05:27:10;;;;;;;10.27;3.93;;;9.30;99.90;;;;;;4141659;28;20038;-57
2022/04/11 05:29:11;;;;;;;8.30;4.30;;;9.00;99.90;;;;;;4142334;28;20076;-58
2022/04/11 05:31:12;;;;;;;10.57;3.50;;;9.10;99.90;;;;;;4141027;28;20528;-56
2022/04/11 05:33:15;;;;;;;7.63;4.90;;;9.70;99.90;;;;;;4141315;28;20157;-53
2022/04/11 05:35:16;;;;;;;7.20;3.37;;;9.90;99.50;;;;;;4140472;28;20080;-59
2022/04/11 05:37:18;;;;;;;8.97;4.73;;;9.70;98.80;;;;;;4141592;28;20146;-55
2022/04/11 05:39:19;;;;;;;10.70;4.00;;;9.70;98.80;;;;;;4141104;28;20038;-59
2022/04/11 05:41:20;;;;;;;7.20;4.43;;;10.20;98.80;;;;;;4141660;28;20038;-55
2022/04/11 05:43:21;;;;;;;10.57;4.13;;;10.80;97.90;;;;;;4141465;28;20091;-58
2022/04/11 05:45:22;;;;;;;6.63;4.33;;;11.10;96.80;;;;;;4141138;28;20026;-58
2022/04/11 05:47:23;;;;;;;6.17;4.03;;;11.80;96.10;;;;;;4140235;28;20567;-57
2022/04/11 05:49:24;;;;;;;7.77;3.80;;;11.60;94.50;;;;;;4140985;28;20136;-57
2022/04/11 05:51:26;;;;;;;7.37;4.07;;;10.90;93.90;;;;;;4142558;28;20222;-57
2022/04/11 05:53:27;;;;;;;7.27;4.20;;;10.90;94.90;;;;;;4140991;28;20038;-58
2022/04/11 05:55:29;;;;;;;8.50;4.77;;;11.00;94.70;;;;;;4140752;28;20088;-59
2022/04/11 05:57:30;;;;;;;6.87;3.43;;;11.10;94.50;;;;;;4141572;28;20050;-59
2022/04/11 05:59:31;;;;;;;8.07;3.63;;;11.50;94.20;;;;;;4142193;28;20050;-58
2022/04/11 06:01:32;;;;;;;7.93;3.40;;;12.00;93.70;;;;;;4141287;28;20050;-59
2022/04/11 06:03:37;;;;;;;8.17;4.00;;;12.20;92.80;;;;;;4142374;28;20485;-58
2022/04/11 06:05:39;;;;;;;7.40;2.90;;;12.30;91.80;;;;;;4140985;28;20524;-56
2022/04/11 06:07:41;;;;;;;6.63;3.67;;;11.90;91.50;;;;;;4142353;28;20486;-58
2022/04/11 06:09:42;;;;;;;7.50;3.90;;;12.00;91.80;;;;;;4141654;28;20096;-58
2022/04/11 06:11:43;;;;;;;5.50;3.10;;;12.40;91.70;;;;;;4141724;28;20088;-59
2022/04/11 06:13:47;;;;;;;15.13;4.70;;;12.80;91.10;;;;;;4141243;28;20548;-56
2022/04/11 06:15:49;;;;;;;7.60;3.47;;;13.20;90.60;;;;;;4140876;28;20514;-58
2022/04/11 06:17:50;;;;;;;5.07;2.90;;;13.30;90.00;;;;;;4141113;28;20046;-58
2022/04/11 06:19:56;;;;;;;8.67;3.97;;;13.40;88.60;;;;;;4141118;28;20892;-58
2022/04/11 06:21:57;;;;;;;6.40;3.07;;;13.80;87.50;;;;;;4141891;28;20041;-57
2022/04/11 06:23:58;;;;;;;5.40;2.70;;;13.50;86.70;;;;;;4140637;28;20057;-57
2022/04/11 06:26:00;;;;;;;7.17;3.03;;;13.10;85.90;;;;;;4141248;28;20080;-56
2022/04/11 06:28:01;;;;;;;2.90;2.40;;;12.50;86.10;;;;;;4140498;28;20430;-58
2022/04/11 06:30:04;;;;;;;4.10;2.33;;;12.00;85.60;;;;;;4141988;28;20433;-58
2022/04/11 06:32:06;;;;;;;4.70;2.27;;;11.60;87.70;;;;;;4140448;28;20375;-60
2022/04/11 06:34:07;;;;;;;5.13;2.87;;;11.40;88.50;;;;;;4141808;28;20380;-58
2022/04/11 06:36:08;;;;;;;4.23;2.67;;;11.30;88.60;;;;;;4140747;28;20021;-58
2022/04/11 06:38:09;;;;;;;8.07;3.73;;;11.50;88.90;;;;;;4141843;28;20037;-58
2022/04/11 06:40:11;;;;;;;8.90;2.73;;;11.80;88.80;;;;;;4140769;28;20038;-56
2022/04/11 06:42:13;;;;;;;5.33;2.40;;;11.70;88.70;;;;;;4141292;28;20046;-59
2022/04/11 06:44:14;;;;;;;5.40;2.40;;;12.00;88.70;;;;;;4140927;28;20046;-57
2022/04/11 06:46:15;;;;;;;7.47;2.40;;;11.90;87.90;;;;;;4140967;28;20844;-58
2022/04/11 06:48:16;;;;;;;6.60;3.10;;;11.70;88.10;;;;;;4141013;28;20076;-60
2022/04/11 06:50:17;;;;;;;6.00;2.10;;;11.80;88.70;;;;;;4140918;28;20409;-60
2022/04/11 06:52:18;;;;;;;5.27;2.80;;;11.50;88.10;;;;;;4141276;28;20081;-60
2022/04/11 06:54:19;;;;;;;4.53;2.37;;;11.40;88.40;;;;;;4140093;28;20041;-57
2022/04/11 06:56:20;;;;;;;8.67;3.10;;;11.00;88.20;;;;;;4141436;28;20053;-59
2022/04/11 06:58:22;;;;;;;9.90;2.73;;;11.10;89.60;;;;;;4138551;28;20092;-59
2022/04/11 07:00:23;;;;;;;8.90;2.87;;;11.30;89.70;;;;;;4141260;28;20505;-58
2022/04/11 07:02:24;;;;;;;9.53;3.03;;;11.40;88.60;;;;;;4140056;28;20502;-57
2022/04/11 07:04:25;;;;;;;7.63;2.60;;;11.20;88.10;;;;;;4140978;28;20096;-58
2022/04/11 07:06:26;;;;;;;4.90;2.33;;;11.20;88.70;;;;;;4139645;28;20669;-60
2022/04/11 07:08:27;;;;;;;7.67;2.37;;;11.50;88.90;;;;;;4141595;28;20084;-60
2022/04/11 07:10:29;;;;;;;4.47;2.27;;;11.40;88.30;;;;;;4140524;28;20034;-59
2022/04/11 07:12:30;;;;;;;7.00;2.93;;;11.10;88.90;;;;;;4141421;28;20092;-62
2022/04/11 07:14:31;;;;;;;9.10;2.37;;;10.70;88.70;;;;;;4140036;28;20100;-65
2022/04/11 07:16:32;;;;;;;2.23;1.67;;;10.60;90.00;;;;;;4139998;28;20045;-60
2022/04/11 07:18:35;;;;;;;2.77;1.70;;;10.40;90.00;;;;;;4140387;28;20176;-59
2022/04/11 07:20:38;;;;;;;8.77;2.23;;;10.70;90.40;;;;;;4140009;28;20034;-59
2022/04/11 07:22:39;;;;;;;4.83;1.67;;;10.80;90.20;;;;;;4140968;28;20042;-60
2022/04/11 07:24:41;;;;;;;4.33;2.23;;;10.80;89.30;;;;;;4139392;28;20465;-59
2022/04/11 07:26:43;;;;;;;5.23;2.33;;;10.90;90.00;;;;;;4141027;28;20033;-58
2022/04/11 07:28:47;;;;;;;5.40;2.43;;;11.10;89.80;;;;;;4140218;28;20041;-57
2022/04/11 07:30:48;;;;;;;6.67;2.10;;;10.80;88.60;;;;;;4141037;28;20445;-57
2022/04/11 07:32:49;;;;;;;3.93;2.03;;;10.70;89.30;;;;;;4139794;28;20041;-59
2022/04/11 07:34:50;;;;;;;5.33;2.13;;;10.60;88.60;;;;;;4140711;28;20068;-61
2022/04/11 07:36:51;;;;;;;5.07;1.73;;;10.60;89.50;;;;;;4139231;28;20030;-61
2022/04/11 07:38:53;;;;;;;10.73;2.57;;;10.50;89.30;;;;;;4140604;28;20283;-59
2022/04/11 07:40:54;;;;;;;5.17;2.47;;;10.60;89.50;;;;;;4139804;28;20639;-59
2022/04/11 07:42:55;;;;;;;8.93;2.60;;;10.90;89.60;;;;;;4140818;28;20359;-59
2022/04/11 07:44:57;;;;;;;7.33;2.30;;;10.80;88.70;;;;;;4140005;28;20054;-59
2022/04/11 07:46:58;;;;;;;5.37;1.73;;;10.70;88.20;;;;;;4140322;28;20368;-57
2022/04/11 07:48:59;;;;;;;6.43;2.43;;;10.40;88.50;;;;;;4140126;28;20351;-58
2022/04/11 07:51:00;;;;;;;3.10;2.00;;;10.40;89.90;;;;;;4139876;28;20021;-58
2022/04/11 07:53:01;;;;;;;5.00;2.30;;;10.60;89.90;;;;;;4140821;28;20068;-58
2022/04/11 07:55:03;;;;;;;5.60;1.77;;;10.70;87.80;;;;;;4139809;28;20026;-57
2022/04/11 07:57:04;;;;;;;7.17;1.70;;;10.60;88.90;;;;;;4140301;28;20037;-59
2022/04/11 07:59:05;;;;;;;3.37;1.80;;;10.60;88.80;;;;;;4139373;28;20489;-61
2022/04/11 08:01:06;;;;;;;4.03;2.00;;;10.40;87.70;;;;;;4140883;28;20095;-59
2022/04/11 08:03:07;;;;;;;4.40;2.10;;;10.40;88.90;;;;;;4139226;28;20096;-58
2022/04/11 08:05:09;;;;;;;6.87;2.03;;;10.50;89.30;;;;;;4140025;28;20037;-58
2022/04/11 08:07:10;;;;;;;24.17;2.43;;;10.50;89.40;;;;;;4139946;28;20080;-59
2022/04/11 08:09:11;;;;;;;6.07;2.40;;;10.30;88.90;;;;;;4140981;28;20046;-59
2022/04/11 08:11:16;;;;;;;7.00;2.00;;;10.30;89.60;;;;;;4139705;28;20440;-61
2022/04/11 08:13:17;;;;;;;4.57;2.13;;;10.20;89.00;;;;;;4140160;28;20034;-57
2022/04/11 08:15:19;;;;;;;4.77;1.70;;;10.10;88.90;;;;;;4139050;28;20089;-56
2022/04/11 08:17:20;;;;;;;10.17;1.90;;;9.90;88.40;;;;;;4140199;28;20628;-61
2022/04/11 08:19:21;;;;;;;4.93;2.00;;;9.50;87.60;;;;;;4139605;28;20100;-60
2022/04/11 08:21:22;;;;;;;3.33;2.00;;;9.50;89.30;;;;;;4139404;28;20050;-59
2022/04/11 08:23:24;;;;;;;7.47;2.13;;;9.60;89.40;;;;;;4140040;28;20124;-58
2022/04/11 08:25:25;;;;;;;3.03;2.03;;;9.70;89.80;;;;;;4139486;28;20452;-58
2022/04/11 08:27:26;;;;;;;2.57;1.50;;;10.00;89.80;;;;;;4139918;28;20038;-59
2022/04/11 08:29:27;;;;;;;4.30;2.43;;;10.10;88.60;;;;;;4137191;28;20038;-58
2022/04/11 08:31:28;;;;;;;6.93;2.03;;;9.80;89.00;;;;;;4139973;28;20038;-60
2022/04/11 08:33:29;;;;;;;9.00;2.00;;;9.40;86.70;;;;;;4139059;28;20154;-60
2022/04/11 08:35:31;;;;;;;6.80;2.17;;;9.30;88.80;;;;;;4140373;28;20072;-57
2022/04/11 08:37:36;;;;;;;4.57;2.03;;;9.20;88.30;;;;;;4138836;28;20076;-57
2022/04/11 08:39:38;;;;;;;5.00;2.00;;;9.00;89.30;;;;;;4140718;28;20084;-58
2022/04/11 08:41:39;;;;;;;6.17;1.67;;;9.00;89.40;;;;;;4138489;28;20099;-58
2022/04/11 08:43:41;;;;;;;4.87;1.70;;;9.00;89.60;;;;;;4140262;28;20034;-57
2022/04/11 08:45:44;;;;;;;6.83;2.07;;;9.10;88.70;;;;;;4138777;28;20088;-58
2022/04/11 08:47:47;;;;;;;2.93;1.60;;;9.00;87.10;;;;;;4140550;28;20054;-58
2022/04/11 08:49:50;;;;;;;10.17;2.47;;;9.00;87.70;;;;;;4141039;28;20483;-54
2022/04/11 08:51:51;;;;;;;5.53;1.80;;;9.20;88.80;;;;;;4142429;28;20080;-59
2022/04/11 08:53:52;;;;;;;2.87;2.00;;;9.10;88.00;;;;;;4142597;28;20041;-58
2022/04/11 08:55:53;;;;;;;6.50;3.57;;;9.00;88.30;;;;;;4142862;28;20273;-57
2022/04/11 08:57:57;;;;;;;4.97;2.37;;;9.00;87.50;;;;;;4142864;28;20097;-58
2022/04/11 09:00:16;;;;;;;4.20;1.57;;;9.00;87.40;;;;;;4141596;28;20046;-58
2022/04/11 09:02:18;;;;;;;7.03;2.60;;;9.00;86.50;;;;;;4142423;28;20080;-59
2022/04/11 09:04:19;;;;;;;9.57;3.20;;;9.30;87.70;;;;;;4141878;28;20054;-58
2022/04/11 09:06:22;;;;;;;8.73;2.83;;;9.40;85.40;;;;;;4143115;28;20509;-60
2022/04/11 09:08:42;;;;;;;4.43;2.00;;;9.60;84.00;;;;;;4141899;28;20080;-60
2022/04/11 09:10:43;;;;;;;5.13;2.03;;;9.70;85.20;;;;;;4143064;28;20121;-59
2022/04/11 09:12:58;;;;;;;7.30;1.73;;;9.60;85.60;;;;;;4141652;28;20533;-59
2022/04/11 09:15:05;;;;;;;7.13;2.80;;;9.40;83.90;;;;;;4142548;28;20116;-58
2022/04/11 09:17:06;;;;;;;5.83;2.00;;;9.50;84.60;;;;;;4141633;28;20100;-58
2022/04/11 09:19:17;;;;;;;5.63;2.70;;;9.60;84.90;;;;;;4142615;28;20088;-60
2022/04/11 09:21:21;;;;;;;3.90;2.00;;;9.90;84.90;;;;;;4141470;28;20026;-57
2022/04/11 09:23:23;;;;;;;1.23;1.10;;;9.70;84.30;;;;;;4142517;28;20038;-56
2022/04/11 09:25:31;;;;;;;2.40;1.63;;;9.70;81.80;;;;;;4141386;28;20033;-58
2022/04/11 09:27:32;;;;;;;3.07;1.47;;;9.60;81.80;;;;;;4143210;28;20038;-59
2022/04/11 09:29:34;;;;;;;3.03;1.67;;;9.70;82.60;;;;;;4141563;28;20026;-64
2022/04/11 09:31:35;;;;;;;1.00;0.90;;;9.80;81.30;;;;;;4140834;28;20506;-56
2022/04/11 09:33:40;;;;;;;2.23;1.33;;;9.70;77.80;;;;;;4141028;28;20026;-55
2022/04/11 09:35:44;;;;;;;2.60;1.17;;;9.70;79.20;;;;;;4142482;28;20426;-55
2022/04/11 09:37:46;;;;;;;4.27;1.40;;;9.90;80.20;;;;;;4141178;28;20038;-58
2022/04/11 09:39:56;;;;;;;1.67;1.30;;;10.00;81.30;;;;;;4142668;28;20072;-59
2022/04/11 09:41:57;;;;;;;5.78;1.45;;;10.10;80.00;;;;;;4139695;28;20042;-59
2022/04/11 09:44:22;;;;;;;3.07;1.40;;;10.00;80.10;;;;;;4142244;28;20030;-56
2022/04/11 09:46:23;;;;;;;2.07;1.50;;;9.80;77.40;;;;;;4141007;28;20049;-57
2022/04/11 09:48:27;;;;;;;6.23;1.40;;;9.90;79.60;;;;;;4142471;28;20033;-59
2022/04/11 09:50:32;;;;;;;1.67;1.40;;;10.00;78.70;;;;;;4140883;28;20493;-58
2022/04/11 09:52:33;;;;;;;6.90;1.30;;;10.00;77.80;;;;;;4141639;28;20046;-57
2022/04/11 09:54:42;;;;;;;2.20;1.07;;;10.10;77.10;;;;;;4141087;28;20443;-58
2022/04/11 09:56:44;;;;;;;2.33;0.97;;;10.10;77.50;;;;;;4139978;28;20543;-59
2022/04/11 09:58:47;;;;;;;4.67;1.70;;;10.10;78.00;;;;;;4141626;28;20018;-60
2022/04/11 10:00:50;;;;;;;2.83;1.33;;;9.90;77.90;;;;;;4140554;28;20030;-59
2022/04/11 10:02:51;;;;;;;2.67;1.50;;;9.60;79.10;;;;;;4141396;28;20087;-57
2022/04/11 10:04:53;;;;;;;7.57;2.70;;;9.60;80.00;;;;;;4140751;28;20450;-58
2022/04/11 10:06:55;;;;;;;2.20;1.50;;;9.50;79.00;;;;;;4141469;28;20037;-56
2022/04/11 10:08:56;;;;;;;2.60;1.53;;;9.60;79.60;;;;;;4140732;28;20034;-59
2022/04/11 10:10:58;;;;;;;2.73;1.70;;;9.70;80.20;;;;;;4142467;28;20421;-57
2022/04/11 10:13:00;;;;;;;4.97;1.20;;;9.90;80.30;;;;;;4140605;28;20651;-57
2022/04/11 10:15:01;;;;;;;6.67;1.83;;;10.00;80.00;;;;;;4142191;28;20524;-56
2022/04/11 10:17:03;;;;;;;6.03;2.00;;;9.90;78.40;;;;;;4140123;28;20046;-59
2022/04/11 10:19:05;;;;;;;4.70;1.77;;;9.70;78.20;;;;;;4141932;28;20116;-56
2022/04/11 10:21:09;;;;;;;3.37;2.07;;;9.60;79.60;;;;;;4140241;28;20092;-56
2022/04/11 10:23:21;;;;;;;6.50;1.87;;;9.50;78.50;;;;;;4141570;28;20046;-58
2022/04/11 10:25:23;;;;;;;7.67;1.70;;;9.40;76.40;;;;;;4140432;28;20104;-58
2022/04/11 10:27:28;;;;;;;6.30;1.53;;;9.30;78.30;;;;;;4141515;28;20042;-59
2022/04/11 10:29:38;;;;;;;7.90;2.10;;;9.10;77.80;;;;;;4140752;28;20099;-58
2022/04/11 10:31:40;;;;;;;;;;;8.90;77.30;;;;;;4142253;28;20018;-63
2022/04/11 10:33:59;;;;;;;1.77;1.37;;;9.00;78.70;;;;;;4140831;28;20328;-58
2022/04/11 10:36:00;;;;;;;2.90;1.23;;;9.20;79.30;;;;;;4141349;28;20124;-59
2022/04/11 10:38:01;;;;;;;4.27;1.20;;;9.30;77.40;;;;;;4140609;28;20034;-57
2022/04/11 10:40:17;;;;;;;7.33;1.13;;;9.30;78.20;;;;;;4141103;28;20046;-59